createdAt,value
2018-05-04T00:00:53.287Z,10.11
2018-05-04T00:01:53.221Z,10.03
2018-05-04T00:03:53.245Z,10.03
2018-05-04T00:04:54.156Z,9.93
2018-05-04T00:06:57.321Z,9.89
2018-05-04T00:07:57.292Z,9.90
2018-05-04T00:09:58.609Z,9.84
2018-05-04T00:10:58.085Z,9.89
2018-05-04T00:12:58.691Z,9.84
2018-05-04T00:13:58.008Z,9.89
2018-05-04T00:15:56.015Z,9.74
2018-05-04T00:16:56.007Z,9.80
2018-05-04T00:18:56.456Z,9.66
2018-05-04T00:19:57.841Z,9.67
2018-05-04T00:21:56.895Z,9.64
2018-05-04T00:22:57.785Z,9.62
2018-05-04T00:24:58.239Z,9.60
2018-05-04T00:25:57.164Z,9.63
2018-05-04T00:27:58.280Z,9.64
2018-05-04T00:28:57.679Z,9.70
2018-05-04T00:30:58.082Z,9.62
2018-05-04T00:31:58.679Z,9.63
2018-05-04T00:33:59.584Z,9.56
2018-05-04T00:35:00.056Z,9.53
2018-05-04T00:36:59.799Z,9.59
2018-05-04T00:37:59.519Z,9.48
2018-05-04T00:40:00.604Z,9.52
2018-05-04T00:40:59.446Z,9.44
2018-05-04T00:43:00.498Z,9.45
2018-05-04T00:44:00.994Z,9.34
2018-05-04T00:46:00.882Z,9.30
2018-05-04T00:47:00.268Z,9.17
2018-05-04T00:49:00.877Z,9.16
2018-05-04T00:50:00.765Z,9.16
2018-05-04T00:52:01.353Z,9.17
2018-05-04T00:53:01.647Z,9.19
2018-05-04T00:55:02.612Z,9.21
2018-05-04T00:56:01.583Z,9.19
2018-05-04T00:58:03.140Z,9.14
2018-05-04T00:59:02.109Z,9.16
2018-05-04T01:01:02.623Z,9.29
2018-05-04T01:02:18.397Z,9.34
2018-05-04T01:04:19.047Z,9.27
2018-05-04T01:05:17.660Z,9.27
2018-05-04T01:07:03.403Z,9.30
2018-05-04T01:08:19.003Z,9.30
2018-05-04T01:10:03.877Z,9.19
2018-05-04T01:11:03.772Z,9.17
2018-05-04T01:13:04.321Z,9.16
2018-05-04T01:14:04.269Z,9.20
2018-05-04T01:16:05.713Z,9.17
2018-05-04T01:17:05.193Z,9.19
2018-05-04T01:19:05.714Z,9.11
2018-05-04T01:20:05.101Z,9.11
2018-05-04T01:22:06.133Z,9.12
2018-05-04T01:23:05.559Z,9.19
2018-05-04T01:25:07.042Z,9.19
2018-05-04T01:26:06.951Z,9.11
2018-05-04T01:28:06.978Z,9.09
2018-05-04T01:29:07.963Z,9.12
2018-05-04T01:31:07.436Z,9.08
2018-05-04T01:32:07.015Z,9.16
2018-05-04T01:34:07.397Z,9.14
2018-05-04T01:35:07.855Z,9.09
2018-05-04T01:37:09.926Z,9.00
2018-05-04T01:38:07.837Z,8.83
2018-05-04T01:40:08.294Z,8.72
2018-05-04T01:41:08.264Z,8.76
2018-05-04T01:43:09.159Z,8.85
2018-05-04T01:44:08.669Z,8.85
2018-05-04T01:46:10.165Z,8.83
2018-05-04T01:47:09.167Z,8.72
2018-05-04T01:49:09.574Z,8.71
2018-05-04T01:50:09.463Z,8.79
2018-05-04T01:52:10.429Z,8.77
2018-05-04T01:53:09.944Z,8.74
2018-05-04T01:55:10.440Z,8.74
2018-05-04T01:56:10.351Z,8.83
2018-05-04T01:58:11.387Z,8.85
2018-05-04T01:59:10.824Z,8.72
2018-05-04T02:01:11.293Z,8.71
2018-05-04T02:02:11.264Z,8.72
2018-05-04T02:04:12.235Z,8.74
2018-05-04T02:05:12.676Z,8.69
2018-05-04T02:07:13.282Z,8.77
2018-05-04T02:08:13.226Z,8.79
2018-05-04T02:10:13.130Z,8.67
2018-05-04T02:11:14.145Z,8.61
2018-05-04T02:13:14.127Z,8.49
2018-05-04T02:14:13.099Z,8.47
2018-05-04T02:16:13.613Z,8.47
2018-05-04T02:17:13.553Z,8.43
2018-05-04T02:19:12.060Z,8.34
2018-05-04T02:20:12.481Z,8.34
2018-05-04T02:22:15.681Z,8.31
2018-05-04T02:23:15.649Z,8.32
2018-05-04T02:25:16.343Z,8.34
2018-05-04T02:26:16.171Z,8.32
2018-05-04T02:28:16.677Z,8.26
2018-05-04T02:29:16.575Z,8.26
2018-05-04T02:31:18.509Z,8.11
2018-05-04T02:32:17.447Z,8.14
2018-05-04T02:34:18.913Z,8.14
2018-05-04T02:35:17.871Z,8.13
2018-05-04T02:37:17.940Z,8.11
2018-05-04T02:38:18.279Z,8.14
2018-05-04T02:40:18.435Z,8.16
2018-05-04T02:41:19.820Z,8.10
2018-05-04T02:43:19.802Z,8.10
2018-05-04T02:44:19.705Z,8.14
2018-05-04T02:46:20.120Z,8.06
2018-05-04T02:47:20.066Z,8.01
2018-05-04T02:49:21.390Z,8.01
2018-05-04T02:50:20.518Z,8.10
2018-05-04T02:52:20.955Z,8.13
2018-05-04T02:53:21.404Z,8.13
2018-05-04T02:55:26.415Z,8.16
2018-05-04T02:56:24.893Z,8.19
2018-05-04T02:58:25.454Z,8.17
2018-05-04T02:59:25.886Z,8.17
2018-05-04T03:01:25.821Z,8.10
2018-05-04T03:02:25.816Z,8.25
2018-05-04T03:04:26.296Z,8.25
2018-05-04T03:05:26.246Z,8.28
2018-05-04T03:07:26.871Z,8.25
2018-05-04T03:08:26.687Z,8.31
2018-05-04T03:10:27.625Z,8.24
2018-05-04T03:11:27.670Z,8.31
2018-05-04T03:13:27.715Z,8.22
2018-05-04T03:14:27.589Z,8.28
2018-05-04T03:16:28.241Z,8.25
2018-05-04T03:17:27.961Z,8.24
2018-05-04T03:19:28.877Z,8.24
2018-05-04T03:20:29.848Z,8.17
2018-05-04T03:22:28.977Z,8.22
2018-05-04T03:23:28.943Z,8.26
2018-05-04T03:25:30.331Z,8.31
2018-05-04T03:26:29.792Z,8.29
2018-05-04T03:28:29.696Z,8.19
2018-05-04T03:29:29.638Z,8.11
2018-05-04T03:31:31.229Z,8.19
2018-05-04T03:32:30.173Z,8.19
2018-05-04T03:34:32.122Z,8.19
2018-05-04T03:35:30.526Z,8.11
2018-05-04T03:37:31.126Z,8.09
2018-05-04T03:38:31.114Z,8.06
2018-05-04T03:40:32.480Z,7.98
2018-05-04T03:41:31.405Z,8.10
2018-05-04T03:43:32.548Z,8.04
2018-05-04T03:44:32.412Z,8.03
2018-05-04T03:46:32.423Z,8.06
2018-05-04T03:47:32.375Z,8.06
2018-05-04T03:49:32.863Z,7.95
2018-05-04T03:50:32.804Z,8.01
2018-05-04T03:52:34.697Z,7.93
2018-05-04T03:53:33.715Z,8.01
2018-05-04T03:55:34.179Z,8.03
2018-05-04T03:56:34.090Z,8.06
2018-05-04T03:58:35.064Z,8.04
2018-05-04T03:59:34.184Z,8.09
2018-05-04T04:01:35.521Z,8.07
2018-05-04T04:02:34.540Z,8.07
2018-05-04T04:04:35.419Z,8.10
2018-05-04T04:05:35.418Z,7.95
2018-05-04T04:07:35.473Z,7.89
2018-05-04T04:08:35.895Z,7.83
2018-05-04T04:10:36.151Z,7.83
2018-05-04T04:11:35.804Z,7.80
2018-05-04T04:13:37.784Z,7.80
2018-05-04T04:14:37.681Z,7.71
2018-05-04T04:16:40.264Z,7.83
2018-05-04T04:17:38.659Z,7.88
2018-05-04T04:19:39.374Z,7.86
2018-05-04T04:20:39.562Z,7.91
2018-05-04T04:22:41.175Z,7.96
2018-05-04T04:23:40.664Z,7.95
2018-05-04T04:25:41.087Z,7.93
2018-05-04T04:26:41.039Z,8.01
2018-05-04T04:28:41.493Z,8.10
2018-05-04T04:29:41.971Z,8.07
2018-05-04T04:31:43.329Z,8.07
2018-05-04T04:32:43.286Z,8.13
2018-05-04T04:34:43.556Z,8.14
2018-05-04T04:35:43.680Z,8.07
2018-05-04T04:37:43.601Z,8.19
2018-05-04T04:38:43.674Z,8.11
2018-05-04T04:40:46.045Z,8.25
2018-05-04T04:41:46.091Z,8.29
2018-05-04T04:43:46.236Z,8.29
2018-05-04T04:44:46.573Z,8.31
2018-05-04T04:46:47.131Z,8.32
2018-05-04T04:47:46.086Z,8.28
2018-05-04T04:49:46.994Z,8.35
2018-05-04T04:50:46.977Z,8.46
2018-05-04T04:52:47.033Z,8.53
2018-05-04T04:53:47.577Z,8.62
2018-05-04T04:55:47.869Z,8.76
2018-05-04T04:56:47.872Z,8.90
2018-05-04T04:58:51.565Z,9.09
2018-05-04T04:59:51.788Z,9.19
2018-05-04T05:01:52.902Z,9.21
2018-05-04T05:02:52.204Z,9.37
2018-05-04T05:04:52.631Z,9.53
2018-05-04T05:05:52.271Z,9.62
2018-05-04T05:07:53.597Z,9.63
2018-05-04T05:08:52.610Z,9.62
2018-05-04T05:10:53.659Z,9.81
2018-05-04T05:11:53.038Z,9.84
2018-05-04T05:13:57.033Z,10.00
2018-05-04T05:14:53.951Z,9.98
2018-05-04T05:16:54.928Z,10.13
2018-05-04T05:17:53.856Z,10.21
2018-05-04T05:19:54.782Z,10.18
2018-05-04T05:20:54.796Z,10.26
2018-05-04T05:22:55.392Z,10.44
2018-05-04T05:23:54.725Z,10.44
2018-05-04T05:25:55.251Z,10.55
2018-05-04T05:26:56.691Z,10.67
2018-05-04T05:28:57.189Z,10.67
2018-05-04T05:29:55.557Z,10.75
2018-05-04T05:31:57.938Z,11.02
2018-05-04T05:32:56.057Z,11.12
2018-05-04T05:34:56.515Z,11.26
2018-05-04T05:35:56.443Z,11.27
2018-05-04T05:37:58.094Z,11.30
2018-05-04T05:38:57.476Z,11.42
2018-05-04T05:40:58.440Z,11.30
2018-05-04T05:41:58.137Z,11.30
2018-05-04T05:43:59.211Z,11.43
2018-05-04T05:44:58.636Z,11.43
2018-05-04T05:46:59.237Z,11.60
2018-05-04T05:47:59.050Z,11.68
2018-05-04T05:50:06.451Z,11.78
2018-05-04T05:51:05.458Z,11.75
2018-05-04T05:53:04.003Z,11.91
2018-05-04T05:54:04.946Z,11.94
2018-05-04T05:56:04.487Z,12.10
2018-05-04T05:57:04.901Z,12.22
2018-05-04T05:59:06.825Z,12.45
2018-05-04T06:00:05.372Z,12.48
2018-05-04T06:02:05.938Z,12.62
2018-05-04T06:03:05.326Z,12.65
2018-05-04T06:05:06.886Z,12.56
2018-05-04T06:06:06.695Z,12.63
2018-05-04T06:08:09.568Z,12.55
2018-05-04T06:09:06.984Z,12.70
2018-05-04T06:11:07.653Z,12.61
2018-05-04T06:12:07.628Z,12.74
2018-05-04T06:14:08.980Z,12.74
2018-05-04T06:15:08.469Z,12.69
2018-05-04T06:17:13.427Z,12.73
2018-05-04T06:18:13.481Z,12.70
2018-05-04T06:20:13.960Z,12.86
2018-05-04T06:21:13.877Z,12.81
2018-05-04T06:23:16.229Z,12.81
2018-05-04T06:24:14.314Z,12.83
2018-05-04T06:26:14.787Z,12.92
2018-05-04T06:27:14.830Z,12.94
2018-05-04T06:29:15.219Z,13.17
2018-05-04T06:30:16.680Z,13.16
2018-05-04T06:32:15.813Z,13.11
2018-05-04T06:33:16.195Z,13.24
2018-05-04T06:35:17.719Z,13.28
2018-05-04T06:36:17.203Z,13.36
2018-05-04T06:38:18.075Z,13.37
2018-05-04T06:39:18.051Z,13.36
2018-05-04T06:41:18.468Z,13.48
2018-05-04T06:42:18.489Z,13.60
2018-05-04T06:44:18.467Z,13.53
2018-05-04T06:45:18.405Z,13.57
2018-05-04T06:47:17.834Z,13.66
2018-05-04T06:48:17.346Z,13.66
2018-05-04T06:50:16.987Z,13.57
2018-05-04T06:51:16.948Z,13.65
2018-05-04T06:53:18.034Z,13.62
2018-05-04T06:54:17.387Z,13.63
2018-05-04T06:56:16.372Z,13.76
2018-05-04T06:57:15.496Z,13.83
2018-05-04T06:59:15.950Z,13.83
2018-05-04T07:00:16.438Z,13.83
2018-05-04T07:02:18.379Z,13.75
2018-05-04T07:03:17.416Z,13.75
2018-05-04T07:05:18.803Z,13.83
2018-05-04T07:06:18.727Z,13.84
2018-05-04T07:08:19.791Z,13.97
2018-05-04T07:09:18.239Z,14.09
2018-05-04T07:11:20.737Z,14.20
2018-05-04T07:12:19.728Z,14.24
2018-05-04T07:14:22.167Z,14.41
2018-05-04T07:15:20.172Z,14.45
2018-05-04T07:17:21.619Z,14.56
2018-05-04T07:18:22.137Z,14.66
2018-05-04T07:20:19.734Z,14.63
2018-05-04T07:21:19.698Z,14.57
2018-05-04T07:23:20.195Z,14.70
2018-05-04T07:24:20.152Z,14.77
2018-05-04T07:26:20.674Z,14.75
2018-05-04T07:27:20.580Z,14.86
2018-05-04T07:29:22.612Z,14.86
2018-05-04T07:30:22.076Z,14.90
2018-05-04T07:32:22.565Z,15.08
2018-05-04T07:33:37.156Z,15.18
2018-05-04T07:35:18.975Z,15.20
2018-05-04T07:36:19.039Z,15.18
2018-05-04T07:38:19.461Z,15.40
2018-05-04T07:39:18.960Z,15.51
2018-05-04T07:41:19.907Z,15.56
2018-05-04T07:42:19.369Z,15.56
2018-05-04T07:44:19.803Z,15.68
2018-05-04T07:45:19.791Z,15.71
2018-05-04T07:47:19.251Z,15.74
2018-05-04T07:48:19.740Z,15.80
2018-05-04T07:50:18.828Z,15.92
2018-05-04T07:51:18.339Z,15.93
2018-05-04T07:53:18.810Z,15.93
2018-05-04T07:54:18.881Z,15.96
2018-05-04T07:56:19.866Z,16.04
2018-05-04T07:57:19.244Z,16.08
2018-05-04T07:59:19.690Z,16.02
2018-05-04T08:00:19.656Z,16.18
2018-05-04T08:02:17.631Z,16.16
2018-05-04T08:03:17.657Z,16.21
2018-05-04T08:05:14.070Z,16.34
2018-05-04T08:06:14.551Z,16.34
2018-05-04T08:08:14.059Z,16.47
2018-05-04T08:09:15.059Z,16.49
2018-05-04T08:11:15.510Z,16.44
2018-05-04T08:12:14.561Z,16.40
2018-05-04T08:14:14.972Z,16.58
2018-05-04T08:15:14.972Z,16.59
2018-05-04T08:17:13.427Z,16.66
2018-05-04T08:18:14.442Z,16.74
2018-05-04T08:20:13.897Z,16.80
2018-05-04T08:21:14.455Z,16.74
2018-05-04T08:23:11.362Z,16.76
2018-05-04T08:24:11.894Z,16.72
2018-05-04T08:26:09.419Z,16.69
2018-05-04T08:27:09.412Z,16.72
2018-05-04T08:29:10.376Z,16.76
2018-05-04T08:30:09.858Z,16.90
2018-05-04T08:32:11.820Z,17.00
2018-05-04T08:33:10.509Z,17.12
2018-05-04T08:35:11.475Z,17.21
2018-05-04T08:36:10.969Z,17.17
2018-05-04T08:38:08.919Z,17.09
2018-05-04T08:39:09.938Z,16.95
2018-05-04T08:41:07.869Z,16.91
2018-05-04T08:42:07.903Z,16.91
2018-05-04T08:44:05.522Z,16.99
2018-05-04T08:45:05.546Z,16.99
2018-05-04T08:47:02.948Z,17.12
2018-05-04T08:48:02.892Z,17.20
2018-05-04T08:49:59.855Z,17.25
2018-05-04T08:50:58.876Z,17.36
2018-05-04T08:52:57.808Z,17.55
2018-05-04T08:53:57.310Z,17.49
2018-05-04T08:55:57.301Z,17.49
2018-05-04T08:56:57.239Z,17.63
2018-05-04T08:58:53.241Z,17.63
2018-05-04T08:59:54.705Z,17.58
2018-05-04T09:01:54.696Z,17.62
2018-05-04T09:02:54.663Z,17.43
2018-05-04T09:04:50.711Z,17.32
2018-05-04T09:05:50.780Z,17.21
2018-05-04T09:07:48.613Z,17.21
2018-05-04T09:08:48.615Z,17.35
2018-05-04T09:10:46.575Z,17.43
2018-05-04T09:11:46.554Z,17.52
2018-05-04T09:13:44.516Z,17.58
2018-05-04T09:14:44.535Z,17.65
2018-05-04T09:16:45.471Z,17.63
2018-05-04T09:17:46.996Z,17.68
2018-05-04T09:19:47.022Z,17.86
2018-05-04T09:20:45.487Z,17.92
2018-05-04T09:22:44.399Z,17.88
2018-05-04T09:23:43.411Z,17.79
2018-05-04T09:25:41.903Z,17.83
2018-05-04T09:26:41.894Z,17.79
2018-05-04T09:28:37.812Z,17.77
2018-05-04T09:29:37.324Z,17.83
2018-05-04T09:31:35.450Z,17.81
2018-05-04T09:32:35.243Z,17.50
2018-05-04T09:34:35.714Z,17.43
2018-05-04T09:35:35.731Z,17.57
2018-05-04T09:37:36.194Z,17.54
2018-05-04T09:38:36.183Z,17.55
2018-05-04T09:40:32.640Z,17.74
2018-05-04T09:41:32.155Z,17.83
2018-05-04T09:43:33.553Z,18.10
2018-05-04T09:44:32.592Z,18.11
2018-05-04T09:46:30.792Z,18.10
2018-05-04T09:47:30.739Z,18.26
2018-05-04T09:49:30.644Z,18.45
2018-05-04T09:50:28.790Z,18.38
2018-05-04T09:52:27.240Z,18.44
2018-05-04T09:53:26.786Z,18.42
2018-05-04T09:55:25.709Z,18.44
2018-05-04T09:56:24.721Z,18.36
2018-05-04T09:58:27.162Z,18.59
2018-05-04T09:59:25.197Z,18.61
2018-05-04T10:01:25.650Z,18.76
2018-05-04T10:02:26.217Z,18.76
2018-05-04T10:04:26.267Z,18.59
2018-05-04T10:05:26.329Z,18.74
2018-05-04T10:07:27.773Z,18.76
2018-05-04T10:08:27.761Z,18.76
2018-05-04T10:10:28.235Z,18.79
2018-05-04T10:11:29.229Z,18.75
2018-05-04T10:13:26.776Z,18.99
2018-05-04T10:14:26.211Z,19.07
2018-05-04T10:16:26.671Z,19.13
2018-05-04T10:17:26.658Z,19.16
2018-05-04T10:19:28.107Z,19.12
2018-05-04T10:20:28.067Z,19.02
2018-05-04T10:22:25.046Z,18.97
2018-05-04T10:23:25.068Z,18.99
2018-05-04T10:25:24.006Z,18.91
2018-05-04T10:26:24.025Z,18.97
2018-05-04T10:28:22.474Z,19.02
2018-05-04T10:29:20.958Z,18.90
2018-05-04T10:31:19.868Z,18.79
2018-05-04T10:32:18.914Z,18.78
2018-05-04T10:34:15.897Z,18.96
2018-05-04T10:35:15.939Z,19.06
2018-05-04T10:37:16.389Z,19.15
2018-05-04T10:38:16.402Z,19.15
2018-05-04T10:40:16.816Z,19.09
2018-05-04T10:41:16.833Z,19.07
2018-05-04T10:43:18.254Z,19.13
2018-05-04T10:44:17.318Z,19.15
2018-05-04T10:46:18.244Z,19.30
2018-05-04T10:47:17.676Z,19.31
2018-05-04T10:49:19.700Z,19.24
2018-05-04T10:50:19.239Z,19.31
2018-05-04T10:52:20.631Z,19.24
2018-05-04T10:53:20.634Z,19.34
2018-05-04T10:55:19.598Z,19.19
2018-05-04T10:56:17.770Z,19.23
2018-05-04T10:58:16.244Z,19.16
2018-05-04T10:59:16.712Z,19.00
2018-05-04T11:01:11.653Z,19.13
2018-05-04T11:02:11.642Z,19.17
2018-05-04T11:04:08.645Z,19.17
2018-05-04T11:05:07.617Z,19.30
2018-05-04T11:07:08.621Z,19.27
2018-05-04T11:08:08.573Z,19.46
2018-05-04T11:10:08.525Z,19.57
2018-05-04T11:11:08.526Z,19.72
2018-05-04T11:13:10.509Z,19.68
2018-05-04T11:14:10.499Z,19.83
2018-05-04T11:16:10.633Z,20.04
2018-05-04T11:17:10.171Z,20.02
2018-05-04T11:19:08.094Z,19.97
2018-05-04T11:20:08.091Z,19.93
2018-05-04T11:22:13.537Z,19.90
2018-05-04T11:23:13.534Z,19.97
2018-05-04T11:25:11.505Z,20.10
2018-05-04T11:26:11.566Z,20.08
2018-05-04T11:28:09.629Z,19.86
2018-05-04T11:29:09.635Z,19.98
2018-05-04T11:31:11.061Z,20.05
2018-05-04T11:32:10.066Z,20.07
2018-05-04T11:34:10.551Z,20.16
2018-05-04T11:35:10.569Z,20.10
2018-05-04T11:37:09.025Z,20.05
2018-05-04T11:38:08.521Z,20.08
2018-05-04T11:40:07.541Z,20.07
2018-05-04T11:41:06.921Z,20.16
2018-05-04T11:43:04.885Z,20.11
2018-05-04T11:44:04.938Z,20.08
2018-05-04T11:46:06.362Z,20.25
2018-05-04T11:47:05.947Z,20.27
2018-05-04T11:49:06.314Z,20.11
2018-05-04T11:50:04.297Z,20.27
2018-05-04T11:52:00.271Z,20.34
2018-05-04T11:53:00.248Z,20.27
2018-05-04T11:54:57.202Z,20.27
2018-05-04T11:55:56.716Z,20.04
2018-05-04T11:57:54.664Z,19.92
2018-05-04T11:58:56.132Z,20.08
2018-05-04T12:00:50.096Z,20.23
2018-05-04T12:01:50.617Z,20.46
2018-05-04T12:03:48.615Z,20.54
2018-05-04T12:04:48.118Z,20.57
2018-05-04T12:06:49.524Z,20.60
2018-05-04T12:07:48.517Z,20.38
2018-05-04T12:09:46.518Z,20.27
2018-05-04T12:10:48.015Z,20.27
2018-05-04T12:12:44.961Z,20.34
2018-05-04T12:13:45.370Z,20.38
2018-05-04T12:15:45.048Z,20.42
2018-05-04T12:16:43.139Z,20.44
2018-05-04T12:18:40.953Z,20.51
2018-05-04T12:19:40.959Z,20.66
2018-05-04T12:21:39.914Z,20.75
2018-05-04T12:22:38.449Z,20.76
2018-05-04T12:24:37.893Z,20.78
2018-05-04T12:25:36.572Z,20.81
2018-05-04T12:27:35.109Z,20.91
2018-05-04T12:28:34.499Z,20.94
2018-05-04T12:30:35.028Z,20.94
2018-05-04T12:31:35.483Z,21.03
2018-05-04T12:33:32.946Z,20.98
2018-05-04T12:34:32.966Z,20.97
2018-05-04T12:36:31.911Z,20.93
2018-05-04T12:37:30.907Z,20.85
2018-05-04T12:39:32.260Z,20.91
2018-05-04T12:40:31.377Z,21.03
2018-05-04T12:42:30.323Z,21.06
2018-05-04T12:43:29.536Z,21.15
2018-05-04T12:45:26.980Z,21.11
2018-05-04T12:46:26.497Z,21.19
2018-05-04T12:48:21.993Z,21.27
2018-05-04T12:49:21.999Z,21.34
2018-05-04T12:51:20.448Z,21.38
2018-05-04T12:52:20.433Z,21.41
2018-05-04T12:54:18.073Z,21.59
2018-05-04T12:55:18.579Z,21.59
2018-05-04T12:57:16.595Z,21.55
2018-05-04T12:58:16.201Z,21.66
2018-05-04T13:00:13.644Z,21.43
2018-05-04T13:01:15.122Z,21.41
2018-05-04T13:03:12.160Z,21.18
2018-05-04T13:04:12.623Z,21.13
2018-05-04T13:06:10.691Z,21.16
2018-05-04T13:07:10.677Z,21.25
2018-05-04T13:09:08.242Z,21.33
2018-05-04T13:10:07.731Z,21.31
2018-05-04T13:12:05.802Z,21.43
2018-05-04T13:13:05.732Z,21.31
2018-05-04T13:15:01.668Z,21.34
2018-05-04T13:16:01.700Z,21.36
2018-05-04T13:17:58.163Z,21.31
2018-05-04T13:18:58.115Z,21.36
2018-05-04T13:20:53.640Z,21.43
2018-05-04T13:21:53.584Z,21.58
2018-05-04T13:23:51.532Z,21.66
2018-05-04T13:24:51.577Z,21.74
2018-05-04T13:26:51.564Z,21.76
2018-05-04T13:27:50.531Z,21.67
2018-05-04T13:29:48.000Z,21.53
2018-05-04T13:30:47.688Z,21.51
2018-05-04T13:32:43.629Z,21.55
2018-05-04T13:33:44.112Z,21.49
2018-05-04T13:35:41.092Z,21.55
2018-05-04T13:36:41.063Z,21.55
2018-05-04T13:38:42.012Z,21.38
2018-05-04T13:39:42.013Z,21.51
2018-05-04T13:41:42.474Z,21.64
2018-05-04T13:42:42.446Z,21.51
2018-05-04T13:44:39.482Z,21.61
2018-05-04T13:45:39.433Z,21.59
2018-05-04T13:47:36.461Z,21.51
2018-05-04T13:48:35.469Z,21.49
2018-05-04T13:50:36.932Z,21.61
2018-05-04T13:51:35.936Z,21.49
2018-05-04T13:53:34.945Z,21.34
2018-05-04T13:54:35.843Z,21.28
2018-05-04T13:56:33.033Z,21.45
2018-05-04T13:57:31.975Z,21.53
2018-05-04T13:59:30.938Z,21.70
2018-05-04T14:00:30.963Z,21.80
2018-05-04T14:02:28.081Z,21.56
2018-05-04T14:03:28.083Z,21.46
2018-05-04T14:05:26.578Z,21.31
2018-05-04T14:06:26.587Z,21.34
2018-05-04T14:08:24.931Z,21.38
2018-05-04T14:09:23.998Z,21.41
2018-05-04T14:11:22.127Z,21.38
2018-05-04T14:12:22.119Z,21.33
2018-05-04T14:14:20.122Z,21.38
2018-05-04T14:15:22.094Z,21.38
2018-05-04T14:17:19.084Z,21.30
2018-05-04T14:18:19.091Z,21.33
2018-05-04T14:20:16.701Z,21.36
2018-05-04T14:21:16.194Z,21.33
2018-05-04T14:23:15.137Z,21.21
2018-05-04T14:24:14.661Z,21.19
2018-05-04T14:26:12.191Z,21.27
2018-05-04T14:27:13.136Z,21.25
2018-05-04T14:29:10.688Z,21.33
2018-05-04T14:30:10.666Z,21.40
2018-05-04T14:32:06.151Z,21.53
2018-05-04T14:33:06.114Z,21.56
2018-05-04T14:35:02.185Z,21.56
2018-05-04T14:36:02.093Z,21.64
2018-05-04T14:37:58.082Z,21.59
2018-05-04T14:38:58.060Z,21.64
2018-05-04T14:40:56.044Z,21.53
2018-05-04T14:41:56.513Z,21.52
2018-05-04T14:43:56.491Z,21.52
2018-05-04T14:44:56.600Z,21.62
2018-05-04T14:46:55.441Z,21.59
2018-05-04T14:47:55.425Z,21.61
2018-05-04T14:49:50.420Z,21.74
2018-05-04T14:50:50.461Z,21.71
2018-05-04T14:52:46.331Z,21.90
2018-05-04T14:53:46.361Z,21.96
2018-05-04T14:55:42.343Z,21.80
2018-05-04T14:56:42.310Z,21.71
2018-05-04T14:58:40.339Z,21.71
2018-05-04T14:59:41.284Z,21.62
2018-05-04T15:01:39.222Z,21.52
2018-05-04T15:02:39.147Z,21.55
2018-05-04T15:04:37.376Z,21.52
2018-05-04T15:05:36.806Z,21.53
2018-05-04T15:07:32.286Z,21.55
2018-05-04T15:08:32.291Z,21.58
2018-05-04T15:10:32.256Z,21.52
2018-05-04T15:11:30.235Z,21.67
2018-05-04T15:13:29.704Z,21.68
2018-05-04T15:14:28.209Z,21.70
2018-05-04T15:16:27.189Z,21.67
2018-05-04T15:17:26.657Z,21.74
2018-05-04T15:19:24.599Z,21.61
2018-05-04T15:20:24.118Z,21.66
2018-05-04T15:22:22.201Z,21.78
2018-05-04T15:23:22.205Z,21.64
2018-05-04T15:25:20.186Z,21.74
2018-05-04T15:26:20.694Z,21.82
2018-05-04T15:28:19.140Z,21.83
2018-05-04T15:29:18.598Z,21.61
2018-05-04T15:31:16.191Z,21.53
2018-05-04T15:32:16.198Z,21.51
2018-05-04T15:34:14.699Z,21.61
2018-05-04T15:35:14.680Z,21.61
2018-05-04T15:37:12.247Z,21.51
2018-05-04T15:38:13.044Z,21.64
2018-05-04T15:40:08.253Z,21.55
2018-05-04T15:41:08.218Z,21.61
2018-05-04T15:43:04.225Z,21.41
2018-05-04T15:44:05.199Z,21.34
2018-05-04T15:46:02.780Z,21.43
2018-05-04T15:47:02.173Z,21.38
2018-05-04T15:49:01.637Z,21.43
2018-05-04T15:50:00.285Z,21.33
2018-05-04T15:51:58.777Z,21.36
2018-05-04T15:52:58.274Z,21.37
2018-05-04T15:54:54.246Z,21.38
2018-05-04T15:55:54.198Z,21.41
2018-05-04T15:57:53.694Z,21.51
2018-05-04T15:58:52.173Z,21.52
2018-05-04T16:00:51.138Z,21.30
2018-05-04T16:01:50.656Z,21.33
2018-05-04T16:03:49.096Z,21.31
2018-05-04T16:04:48.092Z,21.31
2018-05-04T16:06:47.587Z,21.43
2018-05-04T16:07:46.211Z,21.41
2018-05-04T16:09:43.181Z,21.36
2018-05-04T16:10:42.672Z,21.36
2018-05-04T16:12:38.116Z,21.37
2018-05-04T16:13:38.151Z,21.36
2018-05-04T16:15:36.132Z,21.31
2018-05-04T16:16:36.030Z,21.30
2018-05-04T16:18:34.032Z,21.19
2018-05-04T16:19:34.531Z,21.15
2018-05-04T16:21:33.005Z,21.09
2018-05-04T16:22:32.088Z,21.09
2018-05-04T16:24:30.094Z,21.15
2018-05-04T16:25:30.054Z,21.13
2018-05-04T16:27:29.517Z,21.12
2018-05-04T16:28:28.944Z,21.15
2018-05-04T16:30:24.500Z,21.16
2018-05-04T16:31:23.986Z,21.18
2018-05-04T16:33:19.920Z,21.01
2018-05-04T16:34:19.930Z,21.01
2018-05-04T16:36:16.418Z,21.06
2018-05-04T16:37:15.852Z,21.11
2018-05-04T16:39:12.317Z,21.11
2018-05-04T16:40:12.309Z,21.01
2018-05-04T16:42:07.771Z,20.94
2018-05-04T16:43:08.263Z,21.00
2018-05-04T16:45:06.714Z,21.18
2018-05-04T16:46:05.713Z,21.16
2018-05-04T16:48:06.214Z,21.13
2018-05-04T16:49:06.689Z,21.15
2018-05-04T16:51:02.183Z,21.13
2018-05-04T16:53:24.465Z,21.16
2018-05-04T16:56:00.458Z,21.22
2018-05-04T16:57:00.483Z,21.30
2018-05-04T16:58:56.911Z,21.33
2018-05-04T16:59:56.441Z,21.38
2018-05-04T17:01:52.409Z,21.30
2018-05-04T17:02:52.419Z,21.53
2018-05-04T17:04:50.385Z,21.66
2018-05-04T17:05:50.398Z,21.77
2018-05-04T17:07:46.863Z,21.78
2018-05-04T17:08:46.359Z,21.80
2018-05-04T17:10:42.842Z,21.83
2018-05-04T17:11:42.327Z,22.12
2018-05-04T17:13:38.318Z,22.69
2018-05-04T17:14:39.730Z,22.79
2018-05-04T17:16:34.313Z,23.07
2018-05-04T17:17:35.245Z,22.71
2018-05-04T17:19:32.725Z,22.15
2018-05-04T17:20:32.229Z,21.93
2018-05-04T17:22:28.715Z,21.37
2018-05-04T17:23:28.196Z,21.15
2018-05-04T17:25:26.318Z,20.94
2018-05-04T17:26:26.353Z,20.90
2018-05-04T17:28:25.781Z,20.86
2018-05-04T17:29:24.293Z,20.72
2018-05-04T17:31:20.276Z,20.66
2018-05-04T17:32:20.369Z,20.63
2018-05-04T17:34:16.736Z,20.58
2018-05-04T17:35:16.715Z,20.64
2018-05-04T17:37:13.174Z,20.61
2018-05-04T17:38:12.142Z,20.57
2018-05-04T17:40:11.670Z,20.54
2018-05-04T17:41:12.048Z,20.54
2018-05-04T17:43:07.226Z,20.60
2018-05-04T17:44:06.221Z,20.60
2018-05-04T17:46:02.699Z,20.61
2018-05-04T17:47:02.696Z,20.56
2018-05-04T17:48:58.632Z,20.41
2018-05-04T17:51:14.055Z,20.35
2018-05-04T17:52:14.056Z,20.20
2018-05-04T17:54:10.029Z,20.15
2018-05-04T17:55:10.086Z,20.16
2018-05-04T17:57:08.973Z,20.18
2018-05-04T17:58:08.006Z,20.07
2018-05-04T18:00:07.469Z,20.25
2018-05-04T18:01:06.973Z,20.08
2018-05-04T18:03:04.178Z,20.10
2018-05-04T18:04:04.117Z,20.10
2018-05-04T18:06:02.056Z,20.04
2018-05-04T18:07:02.075Z,20.00
2018-05-04T18:09:00.021Z,20.02
2018-05-04T18:09:59.999Z,19.98
2018-05-04T18:11:58.967Z,19.89
2018-05-04T18:12:59.987Z,19.83
2018-05-04T18:14:54.048Z,19.75
2018-05-04T18:15:54.048Z,19.72
2018-05-04T18:17:51.034Z,19.67
2018-05-04T18:18:50.510Z,19.71
2018-05-04T18:20:48.471Z,19.68
2018-05-04T18:21:48.463Z,19.65
2018-05-04T18:23:44.021Z,19.61
2018-05-04T18:24:44.415Z,19.49
2018-05-04T18:26:39.846Z,19.46
2018-05-04T18:27:39.864Z,19.47
2018-05-04T18:29:37.876Z,19.28
2018-05-04T18:30:38.361Z,19.32
2018-05-04T18:32:36.277Z,19.27
2018-05-04T18:33:36.268Z,19.20
2018-05-04T18:35:31.800Z,19.17
2018-05-04T18:36:31.805Z,19.10
2018-05-04T18:38:31.267Z,19.05
2018-05-04T18:39:29.924Z,19.09
2018-05-04T18:41:27.857Z,19.06
2018-05-04T18:42:28.366Z,19.05
2018-05-04T18:44:23.855Z,18.99
2018-05-04T18:45:23.806Z,18.87
2018-05-04T18:47:19.751Z,18.89
2018-05-04T18:49:35.714Z,18.78
2018-05-04T18:50:35.713Z,18.75
2018-05-04T18:52:31.646Z,18.82
2018-05-04T18:53:32.187Z,18.75
2018-05-04T18:55:28.624Z,18.74
2018-05-04T18:57:48.631Z,18.65
2018-05-04T18:58:48.598Z,18.61
2018-05-04T19:00:48.587Z,18.57
2018-05-04T19:01:49.066Z,18.61
2018-05-04T19:03:50.007Z,18.54
2018-05-04T19:04:50.008Z,18.53
2018-05-04T19:06:48.499Z,18.42
2018-05-04T19:07:47.149Z,18.42
2018-05-04T19:09:45.281Z,18.44
2018-05-04T19:10:46.094Z,18.39
2018-05-04T19:12:46.233Z,18.38
2018-05-04T19:13:46.219Z,18.32
2018-05-04T19:15:44.663Z,18.32
2018-05-04T19:16:44.204Z,18.32
2018-05-04T19:18:41.740Z,18.32
2018-05-04T19:19:41.738Z,18.29
2018-05-04T19:21:40.223Z,18.19
2018-05-04T19:22:40.197Z,18.23
2018-05-04T19:24:38.645Z,18.14
2018-05-04T19:25:38.640Z,18.10
2018-05-04T19:27:39.611Z,18.03